Pagina principale
METAR-TAF:

METAR-TAF

Aeroporti :

Aeroporto di Enfida-Hammamet

Hammamet, Tunisia

latitudine: 36-04-34N, longitudine: 10-26-19E, altezza: 6 m

Osservazione

Il bollettino è stato emesso 23 minuti fa, alle 05:00 UTC
Vento 5 kt da ovest/sud-ovest
Temperature 6°C
Umidità 81%
Pressione 1014 hPa
Visibilità 10 km o più
nessuna nube inferiore a 1500 m e nessun cumulonembo

METAR: DTNH 210500Z 25005KT CAVOK 06/03 Q1014 NOSIG

Ora: 06:23 (05:23 UTC)

Previsione

Il bollettino è stato emesso 6 ore e 23 minuti fa, alle 23:00 UTC
Previsione valida dal 21 alle 00 UTC al 21 alle 24 UTC
Vento 6 kt da sud-ovest
Visibilità 10 km o più
Poco nuvoloso ad un'altezza di 3000 ft

TAF: DTNH 202300Z 2100/2124 23006KT 9999 FEW030

Osservazioni e previsioni meteorologiche di più di 4000 aeroporti (messaggi METAR e TAF).

Le stazioni disponibili sono rappresentate dai dischi gialli e rossi sulla carta.

Puntare il mouse per vedere il nome della stazione.

Clicca sopra per visualizzare le osservazioni e previsioni meteorologiche.

Per cambiare la mappa : fare clic sui pulsanti verdi con una croce nera per ingrandire, il pulsante verde con un trattino per diminuire, o sulla freccia verde per le mappe adiacenti.


METAR-TAF: